sensor_id;sensor_type;location;lat;lon;timestamp;temperature;humidity
59282;DHT22;45054;52.062;10.010;2022-10-20T00:00:23;5.60;99.90
59282;DHT22;45054;52.062;10.010;2022-10-20T00:02:49;5.50;99.90
59282;DHT22;45054;52.062;10.010;2022-10-20T00:05:14;5.50;99.90
59282;DHT22;45054;52.062;10.010;2022-10-20T00:07:40;5.50;99.90
59282;DHT22;45054;52.062;10.010;2022-10-20T00:10:06;5.50;99.90
59282;DHT22;45054;52.062;10.010;2022-10-20T00:12:33;5.40;99.90
59282;DHT22;45054;52.062;10.010;2022-10-20T00:14:59;5.30;99.90
59282;DHT22;45054;52.062;10.010;2022-10-20T00:17:25;5.30;99.90
59282;DHT22;45054;52.062;10.010;2022-10-20T00:19:50;5.20;99.90
59282;DHT22;45054;52.062;10.010;2022-10-20T00:22:16;5.20;99.90
59282;DHT22;45054;52.062;10.010;2022-10-20T00:24:41;5.20;99.90
59282;DHT22;45054;52.062;10.010;2022-10-20T00:27:07;5.20;99.90
59282;DHT22;45054;52.062;10.010;2022-10-20T00:29:34;5.20;99.90
59282;DHT22;45054;52.062;10.010;2022-10-20T00:32:00;5.20;99.90
59282;DHT22;45054;52.062;10.010;2022-10-20T00:34:26;5.20;99.90
59282;DHT22;45054;52.062;10.010;2022-10-20T00:36:51;5.20;99.90
59282;DHT22;45054;52.062;10.010;2022-10-20T00:39:17;5.20;99.90
59282;DHT22;45054;52.062;10.010;2022-10-20T00:41:42;5.30;99.90
59282;DHT22;45054;52.062;10.010;2022-10-20T00:47:17;5.20;99.90
59282;DHT22;45054;52.062;10.010;2022-10-20T00:49:43;5.20;99.90
59282;DHT22;45054;52.062;10.010;2022-10-20T00:52:10;5.10;99.90
59282;DHT22;45054;52.062;10.010;2022-10-20T00:54:36;5.20;99.90
59282;DHT22;45054;52.062;10.010;2022-10-20T00:57:02;5.10;99.90
59282;DHT22;45054;52.062;10.010;2022-10-20T00:59:30;5.10;99.90
59282;DHT22;45054;52.062;10.010;2022-10-20T01:01:58;5.10;99.90
59282;DHT22;45054;52.062;10.010;2022-10-20T01:04:27;5.10;99.90
59282;DHT22;45054;52.062;10.010;2022-10-20T01:06:54;5.10;99.90
59282;DHT22;45054;52.062;10.010;2022-10-20T01:09:19;5.00;99.90
59282;DHT22;45054;52.062;10.010;2022-10-20T01:11:50;5.00;99.90
59282;DHT22;45054;52.062;10.010;2022-10-20T01:14:32;5.00;99.90
59282;DHT22;45054;52.062;10.010;2022-10-20T01:17:04;5.00;99.90
59282;DHT22;45054;52.062;10.010;2022-10-20T01:19:59;5.00;99.90
59282;DHT22;45054;52.062;10.010;2022-10-20T01:22:40;4.90;99.90
59282;DHT22;45054;52.062;10.010;2022-10-20T01:25:17;4.90;99.90
59282;DHT22;45054;52.062;10.010;2022-10-20T01:27:50;4.80;99.90
59282;DHT22;45054;52.062;10.010;2022-10-20T01:30:18;4.80;99.90
59282;DHT22;45054;52.062;10.010;2022-10-20T01:33:07;4.80;99.90
59282;DHT22;45054;52.062;10.010;2022-10-20T01:35:42;4.70;99.90
59282;DHT22;45054;52.062;10.010;2022-10-20T01:38:15;4.70;99.90
59282;DHT22;45054;52.062;10.010;2022-10-20T01:40:46;4.60;99.90
59282;DHT22;45054;52.062;10.010;2022-10-20T01:43:18;4.50;99.90
59282;DHT22;45054;52.062;10.010;2022-10-20T01:45:46;4.50;99.90
59282;DHT22;45054;52.062;10.010;2022-10-20T01:48:14;4.50;99.90
59282;DHT22;45054;52.062;10.010;2022-10-20T01:50:41;4.40;99.90
59282;DHT22;45054;52.062;10.010;2022-10-20T01:53:08;4.40;99.90
59282;DHT22;45054;52.062;10.010;2022-10-20T01:55:35;4.40;99.90
59282;DHT22;45054;52.062;10.010;2022-10-20T01:58:19;4.50;99.90
59282;DHT22;45054;52.062;10.010;2022-10-20T02:00:48;4.50;99.90
59282;DHT22;45054;52.062;10.010;2022-10-20T02:03:23;4.40;99.90
59282;DHT22;45054;52.062;10.010;2022-10-20T02:06:10;4.40;99.90
59282;DHT22;45054;52.062;10.010;2022-10-20T02:08:42;4.40;99.90
59282;DHT22;45054;52.062;10.010;2022-10-20T02:11:16;4.40;99.90
59282;DHT22;45054;52.062;10.010;2022-10-20T02:13:46;4.40;99.90
59282;DHT22;45054;52.062;10.010;2022-10-20T02:16:16;4.40;99.90
59282;DHT22;45054;52.062;10.010;2022-10-20T02:18:43;4.40;99.90
59282;DHT22;45054;52.062;10.010;2022-10-20T02:21:11;4.40;99.90
59282;DHT22;45054;52.062;10.010;2022-10-20T02:23:39;4.40;99.90
59282;DHT22;45054;52.062;10.010;2022-10-20T02:26:07;4.40;99.90
59282;DHT22;45054;52.062;10.010;2022-10-20T02:28:36;4.50;99.90
59282;DHT22;45054;52.062;10.010;2022-10-20T02:31:04;4.50;99.90
59282;DHT22;45054;52.062;10.010;2022-10-20T02:33:31;4.60;99.90
59282;DHT22;45054;52.062;10.010;2022-10-20T02:35:58;4.60;99.90
59282;DHT22;45054;52.062;10.010;2022-10-20T02:38:24;4.60;99.90
59282;DHT22;45054;52.062;10.010;2022-10-20T02:40:50;4.60;99.90
59282;DHT22;45054;52.062;10.010;2022-10-20T02:43:16;4.60;99.90
59282;DHT22;45054;52.062;10.010;2022-10-20T02:45:41;4.50;99.90
59282;DHT22;45054;52.062;10.010;2022-10-20T02:48:08;4.50;99.90
59282;DHT22;45054;52.062;10.010;2022-10-20T02:50:34;4.60;99.90
59282;DHT22;45054;52.062;10.010;2022-10-20T02:53:00;4.60;99.90
59282;DHT22;45054;52.062;10.010;2022-10-20T02:55:26;4.50;99.90
59282;DHT22;45054;52.062;10.010;2022-10-20T02:57:51;4.50;99.90
59282;DHT22;45054;52.062;10.010;2022-10-20T03:00:17;4.50;99.90
59282;DHT22;45054;52.062;10.010;2022-10-20T03:02:42;4.50;99.90
59282;DHT22;45054;52.062;10.010;2022-10-20T03:05:10;4.50;99.90
59282;DHT22;45054;52.062;10.010;2022-10-20T03:07:35;4.40;99.90
59282;DHT22;45054;52.062;10.010;2022-10-20T03:10:01;4.40;99.90
59282;DHT22;45054;52.062;10.010;2022-10-20T03:12:27;4.50;99.90
59282;DHT22;45054;52.062;10.010;2022-10-20T03:14:53;4.40;99.90
59282;DHT22;45054;52.062;10.010;2022-10-20T03:17:19;4.40;99.90
59282;DHT22;45054;52.062;10.010;2022-10-20T03:19:44;4.40;99.90
59282;DHT22;45054;52.062;10.010;2022-10-20T03:22:11;4.40;99.90
59282;DHT22;45054;52.062;10.010;2022-10-20T03:24:37;4.40;99.90
59282;DHT22;45054;52.062;10.010;2022-10-20T03:27:03;4.40;99.90
59282;DHT22;45054;52.062;10.010;2022-10-20T03:29:28;4.40;99.90
59282;DHT22;45054;52.062;10.010;2022-10-20T03:31:54;4.40;99.90
59282;DHT22;45054;52.062;10.010;2022-10-20T03:34:20;4.30;99.90
59282;DHT22;45054;52.062;10.010;2022-10-20T03:36:46;4.20;99.90
59282;DHT22;45054;52.062;10.010;2022-10-20T03:39:12;4.20;99.90
59282;DHT22;45054;52.062;10.010;2022-10-20T03:41:38;4.30;99.90
59282;DHT22;45054;52.062;10.010;2022-10-20T03:44:04;4.20;99.90
59282;DHT22;45054;52.062;10.010;2022-10-20T03:46:30;4.20;99.90
59282;DHT22;45054;52.062;10.010;2022-10-20T03:48:56;4.20;99.90
59282;DHT22;45054;52.062;10.010;2022-10-20T03:51:22;4.20;99.90
59282;DHT22;45054;52.062;10.010;2022-10-20T03:53:48;4.20;99.90
59282;DHT22;45054;52.062;10.010;2022-10-20T03:56:17;4.20;99.90
59282;DHT22;45054;52.062;10.010;2022-10-20T03:58:43;4.20;99.90
59282;DHT22;45054;52.062;10.010;2022-10-20T04:01:12;4.30;99.90
59282;DHT22;45054;52.062;10.010;2022-10-20T04:03:38;4.30;99.90
59282;DHT22;45054;52.062;10.010;2022-10-20T04:06:04;4.30;99.90
59282;DHT22;45054;52.062;10.010;2022-10-20T04:08:30;4.30;99.90
59282;DHT22;45054;52.062;10.010;2022-10-20T04:10:56;4.30;99.90
59282;DHT22;45054;52.062;10.010;2022-10-20T04:13:23;4.30;99.90
59282;DHT22;45054;52.062;10.010;2022-10-20T04:15:49;4.30;99.90
59282;DHT22;45054;52.062;10.010;2022-10-20T04:18:15;4.40;99.90
59282;DHT22;45054;52.062;10.010;2022-10-20T04:20:40;4.40;99.90
59282;DHT22;45054;52.062;10.010;2022-10-20T04:23:06;4.40;99.90
59282;DHT22;45054;52.062;10.010;2022-10-20T04:25:32;4.40;99.90
59282;DHT22;45054;52.062;10.010;2022-10-20T04:27:58;4.30;99.90
59282;DHT22;45054;52.062;10.010;2022-10-20T04:30:25;4.30;99.90
59282;DHT22;45054;52.062;10.010;2022-10-20T04:32:51;4.20;99.90
59282;DHT22;45054;52.062;10.010;2022-10-20T04:35:16;4.20;99.90
59282;DHT22;45054;52.062;10.010;2022-10-20T04:37:42;4.20;99.90
59282;DHT22;45054;52.062;10.010;2022-10-20T04:40:08;4.10;99.90
59282;DHT22;45054;52.062;10.010;2022-10-20T04:42:34;4.10;99.90
59282;DHT22;45054;52.062;10.010;2022-10-20T04:44:59;4.00;99.90
59282;DHT22;45054;52.062;10.010;2022-10-20T04:47:30;3.90;99.90
59282;DHT22;45054;52.062;10.010;2022-10-20T04:49:56;3.90;99.90
59282;DHT22;45054;52.062;10.010;2022-10-20T04:52:21;3.90;99.90
59282;DHT22;45054;52.062;10.010;2022-10-20T04:54:47;3.80;99.90
59282;DHT22;45054;52.062;10.010;2022-10-20T04:57:13;3.80;99.90
59282;DHT22;45054;52.062;10.010;2022-10-20T04:59:39;3.80;99.90
59282;DHT22;45054;52.062;10.010;2022-10-20T05:02:05;3.70;99.90
59282;DHT22;45054;52.062;10.010;2022-10-20T05:04:32;3.70;99.90
59282;DHT22;45054;52.062;10.010;2022-10-20T05:06:57;3.70;99.90
59282;DHT22;45054;52.062;10.010;2022-10-20T05:09:23;3.60;99.90
59282;DHT22;45054;52.062;10.010;2022-10-20T05:11:49;3.50;99.90
59282;DHT22;45054;52.062;10.010;2022-10-20T05:14:14;3.50;99.90
59282;DHT22;45054;52.062;10.010;2022-10-20T05:16:40;3.50;99.90
59282;DHT22;45054;52.062;10.010;2022-10-20T05:19:05;3.50;99.90
59282;DHT22;45054;52.062;10.010;2022-10-20T05:21:32;3.50;99.90
59282;DHT22;45054;52.062;10.010;2022-10-20T05:23:59;3.50;99.90
59282;DHT22;45054;52.062;10.010;2022-10-20T05:26:26;3.60;99.90
59282;DHT22;45054;52.062;10.010;2022-10-20T05:28:52;3.60;99.90
59282;DHT22;45054;52.062;10.010;2022-10-20T05:31:20;3.60;99.90
59282;DHT22;45054;52.062;10.010;2022-10-20T05:33:48;3.60;99.90
59282;DHT22;45054;52.062;10.010;2022-10-20T05:36:15;3.70;99.90
59282;DHT22;45054;52.062;10.010;2022-10-20T05:38:43;3.70;99.90
59282;DHT22;45054;52.062;10.010;2022-10-20T05:41:10;3.70;99.90
59282;DHT22;45054;52.062;10.010;2022-10-20T05:43:39;3.70;99.90
59282;DHT22;45054;52.062;10.010;2022-10-20T05:46:06;3.80;99.90
59282;DHT22;45054;52.062;10.010;2022-10-20T05:48:32;3.80;99.90
59282;DHT22;45054;52.062;10.010;2022-10-20T05:51:07;3.80;99.90
59282;DHT22;45054;52.062;10.010;2022-10-20T05:53:32;3.70;99.90
59282;DHT22;45054;52.062;10.010;2022-10-20T05:56:03;3.60;99.90
59282;DHT22;45054;52.062;10.010;2022-10-20T05:58:28;3.70;99.90
59282;DHT22;45054;52.062;10.010;2022-10-20T06:01:01;3.70;99.90
59282;DHT22;45054;52.062;10.010;2022-10-20T06:03:28;3.70;99.90
59282;DHT22;45054;52.062;10.010;2022-10-20T06:05:57;3.60;99.90
59282;DHT22;45054;52.062;10.010;2022-10-20T06:08:22;3.60;99.90
59282;DHT22;45054;52.062;10.010;2022-10-20T06:10:48;3.60;99.90
59282;DHT22;45054;52.062;10.010;2022-10-20T06:13:15;3.70;99.90
59282;DHT22;45054;52.062;10.010;2022-10-20T06:15:41;3.70;99.90
59282;DHT22;45054;52.062;10.010;2022-10-20T06:18:06;3.70;99.90
59282;DHT22;45054;52.062;10.010;2022-10-20T06:20:32;3.70;99.90
59282;DHT22;45054;52.062;10.010;2022-10-20T06:22:58;3.70;99.90
59282;DHT22;45054;52.062;10.010;2022-10-20T06:25:23;3.80;99.90
59282;DHT22;45054;52.062;10.010;2022-10-20T06:27:49;3.70;99.90
59282;DHT22;45054;52.062;10.010;2022-10-20T06:30:16;3.70;99.90
59282;DHT22;45054;52.062;10.010;2022-10-20T06:32:42;3.70;99.90
59282;DHT22;45054;52.062;10.010;2022-10-20T06:35:07;3.70;99.90
59282;DHT22;45054;52.062;10.010;2022-10-20T06:37:33;3.70;99.90
59282;DHT22;45054;52.062;10.010;2022-10-20T06:39:59;3.70;99.90
59282;DHT22;45054;52.062;10.010;2022-10-20T06:42:25;3.80;99.90
59282;DHT22;45054;52.062;10.010;2022-10-20T06:44:50;3.80;99.90
59282;DHT22;45054;52.062;10.010;2022-10-20T06:47:17;3.90;99.90
59282;DHT22;45054;52.062;10.010;2022-10-20T06:49:43;3.90;99.90
59282;DHT22;45054;52.062;10.010;2022-10-20T06:52:08;4.00;99.90
59282;DHT22;45054;52.062;10.010;2022-10-20T06:54:34;4.10;99.90
59282;DHT22;45054;52.062;10.010;2022-10-20T06:57:00;4.10;99.90
59282;DHT22;45054;52.062;10.010;2022-10-20T06:59:25;4.20;99.90
59282;DHT22;45054;52.062;10.010;2022-10-20T07:01:51;4.20;99.90
59282;DHT22;45054;52.062;10.010;2022-10-20T07:04:18;4.30;99.90
59282;DHT22;45054;52.062;10.010;2022-10-20T07:06:45;4.20;99.90
59282;DHT22;45054;52.062;10.010;2022-10-20T07:09:15;4.20;99.90
59282;DHT22;45054;52.062;10.010;2022-10-20T07:11:41;4.20;99.90
59282;DHT22;45054;52.062;10.010;2022-10-20T07:14:09;4.30;99.90
59282;DHT22;45054;52.062;10.010;2022-10-20T07:16:36;4.30;99.90
59282;DHT22;45054;52.062;10.010;2022-10-20T07:19:03;4.40;99.90
59282;DHT22;45054;52.062;10.010;2022-10-20T07:21:30;4.50;99.90
59282;DHT22;45054;52.062;10.010;2022-10-20T07:23:56;4.50;99.90
59282;DHT22;45054;52.062;10.010;2022-10-20T07:26:26;4.50;99.90
59282;DHT22;45054;52.062;10.010;2022-10-20T07:28:54;4.50;99.90
59282;DHT22;45054;52.062;10.010;2022-10-20T07:31:21;4.60;99.90
59282;DHT22;45054;52.062;10.010;2022-10-20T07:33:48;4.70;99.90
59282;DHT22;45054;52.062;10.010;2022-10-20T07:36:15;4.80;99.90
59282;DHT22;45054;52.062;10.010;2022-10-20T07:38:43;4.80;99.90
59282;DHT22;45054;52.062;10.010;2022-10-20T07:41:09;4.90;99.90
59282;DHT22;45054;52.062;10.010;2022-10-20T07:43:35;5.00;99.90
59282;DHT22;45054;52.062;10.010;2022-10-20T07:46:01;5.00;99.90
59282;DHT22;45054;52.062;10.010;2022-10-20T07:48:27;5.10;99.90
59282;DHT22;45054;52.062;10.010;2022-10-20T07:50:52;5.20;99.90
59282;DHT22;45054;52.062;10.010;2022-10-20T07:53:18;5.30;99.90
59282;DHT22;45054;52.062;10.010;2022-10-20T07:55:45;5.40;99.90
59282;DHT22;45054;52.062;10.010;2022-10-20T07:58:11;5.50;99.90
59282;DHT22;45054;52.062;10.010;2022-10-20T08:00:37;5.50;99.90
59282;DHT22;45054;52.062;10.010;2022-10-20T08:03:02;5.60;99.90
59282;DHT22;45054;52.062;10.010;2022-10-20T08:05:28;5.70;99.90
59282;DHT22;45054;52.062;10.010;2022-10-20T08:07:54;5.90;99.90
59282;DHT22;45054;52.062;10.010;2022-10-20T08:10:20;6.00;99.90
59282;DHT22;45054;52.062;10.010;2022-10-20T08:12:47;6.10;99.90
59282;DHT22;45054;52.062;10.010;2022-10-20T08:15:13;6.10;99.90
59282;DHT22;45054;52.062;10.010;2022-10-20T08:17:38;6.20;99.90
59282;DHT22;45054;52.062;10.010;2022-10-20T08:20:05;6.30;99.90
59282;DHT22;45054;52.062;10.010;2022-10-20T08:22:31;6.40;99.90
59282;DHT22;45054;52.062;10.010;2022-10-20T08:24:57;6.50;99.90
59282;DHT22;45054;52.062;10.010;2022-10-20T08:27:22;6.50;99.90
59282;DHT22;45054;52.062;10.010;2022-10-20T08:29:49;6.60;99.90
59282;DHT22;45054;52.062;10.010;2022-10-20T08:32:18;6.70;99.90
59282;DHT22;45054;52.062;10.010;2022-10-20T08:34:43;6.80;99.90
59282;DHT22;45054;52.062;10.010;2022-10-20T08:37:09;7.00;99.90
59282;DHT22;45054;52.062;10.010;2022-10-20T08:39:37;7.00;99.90
59282;DHT22;45054;52.062;10.010;2022-10-20T08:42:03;7.20;99.90
59282;DHT22;45054;52.062;10.010;2022-10-20T08:44:30;7.30;99.90
59282;DHT22;45054;52.062;10.010;2022-10-20T08:46:59;7.40;99.90
59282;DHT22;45054;52.062;10.010;2022-10-20T08:49:28;7.50;99.90
59282;DHT22;45054;52.062;10.010;2022-10-20T08:51:55;7.60;99.90
59282;DHT22;45054;52.062;10.010;2022-10-20T08:54:20;7.70;99.90
59282;DHT22;45054;52.062;10.010;2022-10-20T08:56:46;7.80;99.90
59282;DHT22;45054;52.062;10.010;2022-10-20T08:59:24;7.80;99.90
59282;DHT22;45054;52.062;10.010;2022-10-20T09:01:51;7.90;99.90
59282;DHT22;45054;52.062;10.010;2022-10-20T09:04:21;8.00;99.90
59282;DHT22;45054;52.062;10.010;2022-10-20T09:06:51;8.10;99.90
59282;DHT22;45054;52.062;10.010;2022-10-20T09:09:20;8.20;99.90
59282;DHT22;45054;52.062;10.010;2022-10-20T09:11:46;8.30;99.90
59282;DHT22;45054;52.062;10.010;2022-10-20T09:14:13;8.30;99.90
59282;DHT22;45054;52.062;10.010;2022-10-20T09:16:40;8.40;99.90
59282;DHT22;45054;52.062;10.010;2022-10-20T09:19:13;8.40;99.90
59282;DHT22;45054;52.062;10.010;2022-10-20T09:21:43;8.50;99.90
59282;DHT22;45054;52.062;10.010;2022-10-20T09:24:10;8.50;99.90
59282;DHT22;45054;52.062;10.010;2022-10-20T09:26:40;8.60;99.90
59282;DHT22;45054;52.062;10.010;2022-10-20T09:29:08;8.60;99.90
59282;DHT22;45054;52.062;10.010;2022-10-20T09:31:36;8.70;99.90
59282;DHT22;45054;52.062;10.010;2022-10-20T09:34:18;8.80;99.90
59282;DHT22;45054;52.062;10.010;2022-10-20T09:36:46;8.90;99.90
59282;DHT22;45054;52.062;10.010;2022-10-20T09:39:17;9.10;99.90
59282;DHT22;45054;52.062;10.010;2022-10-20T09:41:44;9.20;99.90
59282;DHT22;45054;52.062;10.010;2022-10-20T09:44:14;9.40;99.90
59282;DHT22;45054;52.062;10.010;2022-10-20T09:46:44;9.60;99.90
59282;DHT22;45054;52.062;10.010;2022-10-20T09:49:22;9.70;99.90
59282;DHT22;45054;52.062;10.010;2022-10-20T09:51:51;9.80;99.90
59282;DHT22;45054;52.062;10.010;2022-10-20T09:54:18;9.80;99.90
59282;DHT22;45054;52.062;10.010;2022-10-20T09:56:45;9.90;99.90
59282;DHT22;45054;52.062;10.010;2022-10-20T09:59:20;10.00;99.90
59282;DHT22;45054;52.062;10.010;2022-10-20T10:01:54;10.10;99.90
59282;DHT22;45054;52.062;10.010;2022-10-20T10:04:31;10.30;99.90
59282;DHT22;45054;52.062;10.010;2022-10-20T10:06:59;10.40;99.90
59282;DHT22;45054;52.062;10.010;2022-10-20T10:09:27;10.60;99.90
59282;DHT22;45054;52.062;10.010;2022-10-20T10:11:57;10.70;99.90
59282;DHT22;45054;52.062;10.010;2022-10-20T10:14:23;10.80;99.90
59282;DHT22;45054;52.062;10.010;2022-10-20T10:16:49;10.80;99.90
59282;DHT22;45054;52.062;10.010;2022-10-20T10:19:18;11.00;99.90
59282;DHT22;45054;52.062;10.010;2022-10-20T10:21:46;11.10;99.90
59282;DHT22;45054;52.062;10.010;2022-10-20T10:24:42;11.10;99.90
59282;DHT22;45054;52.062;10.010;2022-10-20T10:27:19;11.20;99.90
59282;DHT22;45054;52.062;10.010;2022-10-20T10:29:45;11.40;99.90
59282;DHT22;45054;52.062;10.010;2022-10-20T10:32:14;11.50;99.90
59282;DHT22;45054;52.062;10.010;2022-10-20T10:37:33;11.70;99.90
59282;DHT22;45054;52.062;10.010;2022-10-20T10:40:02;11.70;99.90
59282;DHT22;45054;52.062;10.010;2022-10-20T10:42:56;11.70;99.90
59282;DHT22;45054;52.062;10.010;2022-10-20T10:45:39;11.80;99.90
59282;DHT22;45054;52.062;10.010;2022-10-20T10:50:57;11.90;99.90
59282;DHT22;45054;52.062;10.010;2022-10-20T10:53:36;12.00;99.90
59282;DHT22;45054;52.062;10.010;2022-10-20T10:56:14;12.00;99.90
59282;DHT22;45054;52.062;10.010;2022-10-20T10:58:45;12.10;99.90
59282;DHT22;45054;52.062;10.010;2022-10-20T11:01:23;12.10;99.90
59282;DHT22;45054;52.062;10.010;2022-10-20T11:04:04;12.10;99.90
59282;DHT22;45054;52.062;10.010;2022-10-20T11:06:36;12.10;99.90
59282;DHT22;45054;52.062;10.010;2022-10-20T11:09:21;12.10;99.90
59282;DHT22;45054;52.062;10.010;2022-10-20T11:14:48;12.20;99.90
59282;DHT22;45054;52.062;10.010;2022-10-20T11:17:25;12.30;99.90
59282;DHT22;45054;52.062;10.010;2022-10-20T11:20:07;12.50;99.90
59282;DHT22;45054;52.062;10.010;2022-10-20T11:22:41;12.70;99.90
59282;DHT22;45054;52.062;10.010;2022-10-20T11:25:15;12.80;99.90
59282;DHT22;45054;52.062;10.010;2022-10-20T11:27:48;13.00;99.90
59282;DHT22;45054;52.062;10.010;2022-10-20T11:30:16;13.10;99.90
59282;DHT22;45054;52.062;10.010;2022-10-20T11:32:46;13.30;99.90
59282;DHT22;45054;52.062;10.010;2022-10-20T11:35:17;13.30;99.90
59282;DHT22;45054;52.062;10.010;2022-10-20T11:37:49;13.30;99.90
59282;DHT22;45054;52.062;10.010;2022-10-20T11:40:22;13.40;99.90
59282;DHT22;45054;52.062;10.010;2022-10-20T11:42:53;13.60;99.90
59282;DHT22;45054;52.062;10.010;2022-10-20T11:45:31;13.70;99.90
59282;DHT22;45054;52.062;10.010;2022-10-20T11:48:03;13.70;99.90
59282;DHT22;45054;52.062;10.010;2022-10-20T11:50:32;13.70;99.90
59282;DHT22;45054;52.062;10.010;2022-10-20T11:56:17;13.90;99.90
59282;DHT22;45054;52.062;10.010;2022-10-20T12:05:24;14.20;99.90
59282;DHT22;45054;52.062;10.010;2022-10-20T12:08:07;14.30;99.90
59282;DHT22;45054;52.062;10.010;2022-10-20T12:10:41;14.40;99.90
59282;DHT22;45054;52.062;10.010;2022-10-20T12:13:24;14.50;99.90
59282;DHT22;45054;52.062;10.010;2022-10-20T12:15:53;14.50;99.90
59282;DHT22;45054;52.062;10.010;2022-10-20T12:18:24;14.50;99.90
59282;DHT22;45054;52.062;10.010;2022-10-20T12:20:53;14.40;99.90
59282;DHT22;45054;52.062;10.010;2022-10-20T12:23:51;14.40;99.90
59282;DHT22;45054;52.062;10.010;2022-10-20T12:29:58;14.50;99.90
59282;DHT22;45054;52.062;10.010;2022-10-20T12:32:54;14.50;99.90
59282;DHT22;45054;52.062;10.010;2022-10-20T12:35:29;14.60;99.90
59282;DHT22;45054;52.062;10.010;2022-10-20T12:37:56;14.70;99.90
59282;DHT22;45054;52.062;10.010;2022-10-20T12:40:27;14.80;99.90
59282;DHT22;45054;52.062;10.010;2022-10-20T12:42:54;14.80;99.90
59282;DHT22;45054;52.062;10.010;2022-10-20T12:45:27;14.80;99.90
59282;DHT22;45054;52.062;10.010;2022-10-20T12:47:57;14.80;99.90
59282;DHT22;45054;52.062;10.010;2022-10-20T12:50:31;14.90;99.90
59282;DHT22;45054;52.062;10.010;2022-10-20T12:53:12;14.90;99.90
59282;DHT22;45054;52.062;10.010;2022-10-20T12:55:41;14.90;99.90
59282;DHT22;45054;52.062;10.010;2022-10-20T12:58:13;15.00;99.90
59282;DHT22;45054;52.062;10.010;2022-10-20T13:01:04;15.00;99.90
59282;DHT22;45054;52.062;10.010;2022-10-20T13:03:43;15.10;99.90
59282;DHT22;45054;52.062;10.010;2022-10-20T13:09:20;15.10;99.90
59282;DHT22;45054;52.062;10.010;2022-10-20T13:11:56;15.00;99.90
59282;DHT22;45054;52.062;10.010;2022-10-20T13:14:47;15.00;99.90
59282;DHT22;45054;52.062;10.010;2022-10-20T13:17:28;15.10;99.90
59282;DHT22;45054;52.062;10.010;2022-10-20T13:19:59;15.00;99.90
59282;DHT22;45054;52.062;10.010;2022-10-20T13:22:44;15.00;99.90
59282;DHT22;45054;52.062;10.010;2022-10-20T13:25:25;14.80;99.90
59282;DHT22;45054;52.062;10.010;2022-10-20T13:28:02;14.80;99.90
59282;DHT22;45054;52.062;10.010;2022-10-20T13:30:28;14.70;99.90
59282;DHT22;45054;52.062;10.010;2022-10-20T13:32:57;14.60;99.90
59282;DHT22;45054;52.062;10.010;2022-10-20T13:35:29;14.50;99.90
59282;DHT22;45054;52.062;10.010;2022-10-20T13:37:58;14.50;99.90
59282;DHT22;45054;52.062;10.010;2022-10-20T13:40:36;14.40;99.90
59282;DHT22;45054;52.062;10.010;2022-10-20T13:43:19;14.40;99.90
59282;DHT22;45054;52.062;10.010;2022-10-20T13:46:11;14.30;99.90
59282;DHT22;45054;52.062;10.010;2022-10-20T13:48:53;14.30;99.90
59282;DHT22;45054;52.062;10.010;2022-10-20T13:51:24;14.20;99.90
59282;DHT22;45054;52.062;10.010;2022-10-20T13:53:53;14.20;99.90
59282;DHT22;45054;52.062;10.010;2022-10-20T13:56:28;14.10;99.90
59282;DHT22;45054;52.062;10.010;2022-10-20T13:58:59;14.00;99.90
59282;DHT22;45054;52.062;10.010;2022-10-20T14:01:26;13.90;99.90
59282;DHT22;45054;52.062;10.010;2022-10-20T14:03:52;13.90;99.90
59282;DHT22;45054;52.062;10.010;2022-10-20T14:06:36;13.80;99.90
59282;DHT22;45054;52.062;10.010;2022-10-20T14:09:13;13.80;99.90
59282;DHT22;45054;52.062;10.010;2022-10-20T14:11:39;13.70;99.90
59282;DHT22;45054;52.062;10.010;2022-10-20T14:14:05;13.70;99.90
59282;DHT22;45054;52.062;10.010;2022-10-20T14:16:32;13.70;99.90
59282;DHT22;45054;52.062;10.010;2022-10-20T14:19:02;13.70;99.90
59282;DHT22;45054;52.062;10.010;2022-10-20T14:21:28;13.70;99.90
59282;DHT22;45054;52.062;10.010;2022-10-20T14:24:01;13.70;99.90
59282;DHT22;45054;52.062;10.010;2022-10-20T14:26:27;13.70;99.90
59282;DHT22;45054;52.062;10.010;2022-10-20T14:28:53;13.70;99.90
59282;DHT22;45054;52.062;10.010;2022-10-20T14:31:21;13.60;99.90
59282;DHT22;45054;52.062;10.010;2022-10-20T14:33:47;13.60;99.90
59282;DHT22;45054;52.062;10.010;2022-10-20T14:36:18;13.50;99.90
59282;DHT22;45054;52.062;10.010;2022-10-20T14:38:47;13.50;99.90
59282;DHT22;45054;52.062;10.010;2022-10-20T14:41:23;13.50;99.90
59282;DHT22;45054;52.062;10.010;2022-10-20T14:43:52;13.50;99.90
59282;DHT22;45054;52.062;10.010;2022-10-20T14:46:22;13.50;99.90
59282;DHT22;45054;52.062;10.010;2022-10-20T14:48:49;13.40;99.90
59282;DHT22;45054;52.062;10.010;2022-10-20T14:51:29;13.40;99.90
59282;DHT22;45054;52.062;10.010;2022-10-20T14:54:31;13.40;99.90
59282;DHT22;45054;52.062;10.010;2022-10-20T14:56:59;13.30;99.90
59282;DHT22;45054;52.062;10.010;2022-10-20T14:59:27;13.30;99.90
59282;DHT22;45054;52.062;10.010;2022-10-20T15:01:59;13.30;99.90
59282;DHT22;45054;52.062;10.010;2022-10-20T15:04:26;13.30;99.90
59282;DHT22;45054;52.062;10.010;2022-10-20T15:07:01;13.30;99.90
59282;DHT22;45054;52.062;10.010;2022-10-20T15:09:30;13.30;99.90
59282;DHT22;45054;52.062;10.010;2022-10-20T15:12:03;13.20;99.90
59282;DHT22;45054;52.062;10.010;2022-10-20T15:14:29;13.20;99.90
59282;DHT22;45054;52.062;10.010;2022-10-20T15:16:55;13.20;99.90
59282;DHT22;45054;52.062;10.010;2022-10-20T15:19:28;13.20;99.90
59282;DHT22;45054;52.062;10.010;2022-10-20T15:21:58;13.20;99.90
59282;DHT22;45054;52.062;10.010;2022-10-20T15:24:24;13.10;99.90
59282;DHT22;45054;52.062;10.010;2022-10-20T15:26:49;13.10;99.90
59282;DHT22;45054;52.062;10.010;2022-10-20T15:29:17;13.00;99.90
59282;DHT22;45054;52.062;10.010;2022-10-20T15:31:43;13.00;99.90
59282;DHT22;45054;52.062;10.010;2022-10-20T15:34:08;13.00;99.90
59282;DHT22;45054;52.062;10.010;2022-10-20T15:36:34;13.00;99.90
59282;DHT22;45054;52.062;10.010;2022-10-20T15:39:01;13.00;99.90
59282;DHT22;45054;52.062;10.010;2022-10-20T15:41:28;13.00;99.90
59282;DHT22;45054;52.062;10.010;2022-10-20T15:43:54;13.00;99.90
59282;DHT22;45054;52.062;10.010;2022-10-20T15:46:21;13.00;99.90
59282;DHT22;45054;52.062;10.010;2022-10-20T15:48:47;13.00;99.90
59282;DHT22;45054;52.062;10.010;2022-10-20T15:51:17;12.90;99.90
59282;DHT22;45054;52.062;10.010;2022-10-20T15:53:44;12.90;99.90
59282;DHT22;45054;52.062;10.010;2022-10-20T15:56:10;13.00;99.90
59282;DHT22;45054;52.062;10.010;2022-10-20T15:58:36;13.00;99.90
59282;DHT22;45054;52.062;10.010;2022-10-20T16:01:01;13.00;99.90
59282;DHT22;45054;52.062;10.010;2022-10-20T16:03:28;13.00;99.90
59282;DHT22;45054;52.062;10.010;2022-10-20T16:05:54;13.00;99.90